createdAt,value
2019-01-17T00:00:24.664Z,6.80
2019-01-17T00:05:00.017Z,6.80
2019-01-17T00:07:35.170Z,6.80
2019-01-17T00:10:08.714Z,6.80
2019-01-17T00:12:42.255Z,6.80
2019-01-17T00:15:22.419Z,6.80
2019-01-17T00:17:56.719Z,6.80
2019-01-17T00:21:05.533Z,6.70
2019-01-17T00:23:40.990Z,6.70
2019-01-17T00:26:17.459Z,6.70
2019-01-17T00:28:51.921Z,6.70
2019-01-17T00:31:24.442Z,6.70
2019-01-17T00:33:58.422Z,6.80
2019-01-17T00:36:30.935Z,6.70
2019-01-17T00:39:04.719Z,6.80
2019-01-17T00:41:47.277Z,6.90
2019-01-17T00:45:28.684Z,6.90
2019-01-17T00:48:02.425Z,6.90
2019-01-17T00:50:37.826Z,6.80
2019-01-17T00:53:11.514Z,6.80
2019-01-17T00:55:49.989Z,6.70
2019-01-17T00:58:28.446Z,6.70
2019-01-17T01:02:11.187Z,6.70
2019-01-17T01:04:50.684Z,6.70
2019-01-17T01:07:57.354Z,6.70
2019-01-17T01:10:31.886Z,6.70
2019-01-17T01:14:10.145Z,6.60
2019-01-17T01:16:55.948Z,6.60
2019-01-17T01:19:28.469Z,6.60
2019-01-17T01:22:02.815Z,6.60
2019-01-17T01:24:41.191Z,6.60
2019-01-17T01:27:15.616Z,6.60
2019-01-17T01:29:48.158Z,6.60
2019-01-17T01:32:22.409Z,6.70
2019-01-17T01:35:00.952Z,6.70
2019-01-17T01:37:45.473Z,6.60
2019-01-17T01:40:17.982Z,6.60
2019-01-17T01:44:58.925Z,6.60
2019-01-17T01:47:33.215Z,6.60
2019-01-17T01:50:08.697Z,6.50
2019-01-17T01:52:42.541Z,6.50
2019-01-17T01:55:10.595Z,6.50
2019-01-17T01:57:39.134Z,6.60
2019-01-17T02:00:08.860Z,6.60
2019-01-17T02:02:43.769Z,6.60
2019-01-17T02:05:12.018Z,6.60
2019-01-17T02:07:40.306Z,6.60
2019-01-17T02:10:09.165Z,6.60
2019-01-17T02:12:37.420Z,6.50
2019-01-17T02:15:05.718Z,6.50
2019-01-17T02:17:33.998Z,6.50
2019-01-17T02:20:02.554Z,6.50
2019-01-17T02:22:30.834Z,6.50
2019-01-17T02:24:59.017Z,6.50
2019-01-17T02:27:27.250Z,6.60
2019-01-17T02:29:55.760Z,6.60
2019-01-17T02:32:24.042Z,6.60
2019-01-17T02:34:52.306Z,6.60
2019-01-17T02:37:21.225Z,6.60
2019-01-17T02:39:49.480Z,6.60
2019-01-17T02:42:17.733Z,6.60
2019-01-17T02:44:45.933Z,6.60
2019-01-17T02:47:14.181Z,6.60
2019-01-17T02:49:42.452Z,6.60
2019-01-17T02:52:11.333Z,6.60
2019-01-17T02:54:39.561Z,6.70
2019-01-17T02:57:07.786Z,6.70
2019-01-17T02:59:36.090Z,6.70
2019-01-17T03:02:04.440Z,6.70
2019-01-17T03:04:33.690Z,6.70
2019-01-17T03:07:01.030Z,6.60
2019-01-17T03:09:29.954Z,6.70
2019-01-17T03:11:58.828Z,6.70
2019-01-17T03:14:27.107Z,6.70
2019-01-17T03:16:55.378Z,6.70
2019-01-17T03:19:24.293Z,6.60
2019-01-17T03:21:52.882Z,6.60
2019-01-17T03:24:21.879Z,6.60
2019-01-17T03:26:50.664Z,6.70
2019-01-17T03:29:18.995Z,6.70
2019-01-17T03:31:47.212Z,6.70
2019-01-17T03:34:15.473Z,6.70
2019-01-17T03:36:43.695Z,6.70
2019-01-17T03:39:11.959Z,6.70
2019-01-17T03:41:40.225Z,6.70
2019-01-17T03:44:08.617Z,6.70
2019-01-17T03:46:37.423Z,6.80
2019-01-17T03:49:06.208Z,6.80
2019-01-17T03:51:34.470Z,6.80
2019-01-17T03:54:02.684Z,6.80
2019-01-17T03:56:31.990Z,6.80
2019-01-17T03:59:00.325Z,6.90
2019-01-17T04:01:29.547Z,6.90
2019-01-17T04:03:57.851Z,6.90
2019-01-17T04:06:26.434Z,6.90
2019-01-17T04:08:54.697Z,6.90
2019-01-17T04:11:22.982Z,7.00
2019-01-17T04:13:51.250Z,6.90
2019-01-17T04:16:19.577Z,6.90
2019-01-17T04:18:48.672Z,6.90
2019-01-17T04:21:16.978Z,6.90
2019-01-17T04:23:45.206Z,6.90
2019-01-17T04:26:13.464Z,6.90
2019-01-17T04:28:41.705Z,6.90
2019-01-17T04:31:09.970Z,7.00
2019-01-17T04:33:38.801Z,7.00
2019-01-17T04:36:07.071Z,7.00
2019-01-17T04:38:35.338Z,7.00
2019-01-17T04:41:03.697Z,7.00
2019-01-17T04:43:31.991Z,7.00
2019-01-17T04:46:00.253Z,7.10
2019-01-17T04:48:29.368Z,7.10
2019-01-17T04:50:57.600Z,7.10
2019-01-17T04:53:25.826Z,7.10
2019-01-17T04:55:54.052Z,7.10
2019-01-17T04:58:25.449Z,7.10
2019-01-17T05:00:53.739Z,7.10
2019-01-17T05:03:22.049Z,7.20
2019-01-17T05:05:50.337Z,7.20
2019-01-17T05:08:18.620Z,7.30
2019-01-17T05:10:46.909Z,7.30
2019-01-17T05:13:15.700Z,7.30
2019-01-17T05:15:45.153Z,7.20
2019-01-17T05:18:13.456Z,7.20
2019-01-17T05:20:41.736Z,7.20
2019-01-17T05:23:10.030Z,7.20
2019-01-17T05:25:38.316Z,7.10
2019-01-17T05:28:06.625Z,7.00
2019-01-17T05:30:36.616Z,7.00
2019-01-17T05:33:04.856Z,7.00
2019-01-17T05:35:33.758Z,6.90
2019-01-17T05:38:02.025Z,6.90
2019-01-17T05:40:30.347Z,6.90
2019-01-17T05:42:58.952Z,6.90
2019-01-17T05:45:27.877Z,6.90
2019-01-17T05:47:56.138Z,7.00
2019-01-17T05:50:24.590Z,7.00
2019-01-17T05:52:52.877Z,6.90
2019-01-17T05:55:21.182Z,7.00
2019-01-17T05:57:49.430Z,7.00
2019-01-17T06:00:20.046Z,6.90
2019-01-17T06:02:49.269Z,7.00
2019-01-17T06:05:18.280Z,6.90
2019-01-17T06:07:48.034Z,6.90
2019-01-17T06:10:16.330Z,6.90
2019-01-17T06:12:45.048Z,6.90
2019-01-17T06:15:13.563Z,6.90
2019-01-17T06:17:41.836Z,6.90
2019-01-17T06:20:12.084Z,7.00
2019-01-17T06:22:40.374Z,7.00
2019-01-17T06:25:08.719Z,6.90
2019-01-17T06:27:36.992Z,7.00
2019-01-17T06:30:07.126Z,7.00
2019-01-17T06:32:35.346Z,6.90
2019-01-17T06:35:03.694Z,6.80
2019-01-17T06:37:31.929Z,6.70
2019-01-17T06:40:00.235Z,6.60
2019-01-17T06:42:28.468Z,6.50
2019-01-17T06:44:56.722Z,6.40
2019-01-17T06:47:25.184Z,6.40
2019-01-17T06:49:53.409Z,6.30
2019-01-17T06:52:22.648Z,6.40
2019-01-17T06:54:50.960Z,6.40
2019-01-17T06:57:19.256Z,6.50
2019-01-17T06:59:48.234Z,6.50
2019-01-17T07:02:16.525Z,6.50
2019-01-17T07:04:44.775Z,6.50
2019-01-17T07:07:13.095Z,6.40
2019-01-17T07:09:42.096Z,6.50
2019-01-17T07:12:10.493Z,6.60
2019-01-17T07:14:39.349Z,6.70
2019-01-17T07:17:07.584Z,6.80
2019-01-17T07:19:35.905Z,6.80
2019-01-17T07:22:04.266Z,6.70
2019-01-17T07:24:32.521Z,6.80
2019-01-17T07:27:00.835Z,6.90
2019-01-17T07:29:29.694Z,6.60
2019-01-17T07:31:57.945Z,6.70
2019-01-17T07:34:26.858Z,6.60
2019-01-17T07:36:55.825Z,6.60
2019-01-17T07:39:24.114Z,6.60
2019-01-17T07:41:52.327Z,6.60
2019-01-17T07:44:20.574Z,6.70
2019-01-17T07:46:48.950Z,6.70
2019-01-17T07:49:17.246Z,6.70
2019-01-17T07:51:45.552Z,6.70
2019-01-17T07:54:13.830Z,6.80
2019-01-17T07:56:44.236Z,6.90
2019-01-17T07:59:12.509Z,6.90
2019-01-17T08:01:40.839Z,6.90
2019-01-17T08:04:10.886Z,6.90
2019-01-17T08:06:39.230Z,6.90
2019-01-17T08:09:09.724Z,6.90
2019-01-17T08:11:38.062Z,6.90
2019-01-17T08:14:06.732Z,6.80
2019-01-17T08:16:35.738Z,6.80
2019-01-17T08:19:04.043Z,6.90
2019-01-17T08:21:32.284Z,6.90
2019-01-17T08:24:00.502Z,6.90
2019-01-17T08:26:29.662Z,6.90
2019-01-17T08:28:57.968Z,7.00
2019-01-17T08:31:26.318Z,7.00
2019-01-17T08:33:54.528Z,7.00
2019-01-17T08:36:22.786Z,7.00
2019-01-17T08:38:51.086Z,7.00
2019-01-17T08:41:20.318Z,7.00
2019-01-17T08:43:48.597Z,7.00
2019-01-17T08:46:17.343Z,7.00
2019-01-17T08:48:45.689Z,7.00
2019-01-17T08:51:13.970Z,7.00
2019-01-17T08:53:48.774Z,7.10
2019-01-17T08:56:17.068Z,7.10
2019-01-17T08:58:45.319Z,7.20
2019-01-17T09:01:14.520Z,7.30
2019-01-17T09:03:42.820Z,7.30
2019-01-17T09:06:11.066Z,7.30
2019-01-17T09:08:39.339Z,7.30
2019-01-17T09:11:14.242Z,7.30
2019-01-17T09:13:42.505Z,7.20
2019-01-17T09:16:10.760Z,7.20
2019-01-17T09:18:39.110Z,7.10
2019-01-17T09:21:07.379Z,7.10
2019-01-17T09:23:36.844Z,7.20
2019-01-17T09:26:07.702Z,7.20
2019-01-17T09:28:35.101Z,7.30
2019-01-17T09:31:03.514Z,7.40
2019-01-17T09:33:34.763Z,7.30
2019-01-17T09:36:03.140Z,7.30
2019-01-17T09:38:31.501Z,7.40
2019-01-17T09:40:59.800Z,7.40
2019-01-17T09:43:28.062Z,7.50
2019-01-17T09:45:56.347Z,7.50
2019-01-17T09:48:24.650Z,7.40
2019-01-17T09:50:52.906Z,7.50
2019-01-17T09:53:22.021Z,7.60
2019-01-17T09:55:50.215Z,7.60
2019-01-17T09:58:18.552Z,7.70
2019-01-17T10:00:46.831Z,7.70
2019-01-17T10:03:15.196Z,7.60
2019-01-17T10:05:44.454Z,7.60
2019-01-17T10:08:13.433Z,7.80
2019-01-17T10:10:41.765Z,7.70
2019-01-17T10:13:10.070Z,7.70
2019-01-17T10:15:54.984Z,7.60
2019-01-17T10:18:41.127Z,7.60
2019-01-17T10:21:25.245Z,7.80
2019-01-17T10:25:08.242Z,7.90
2019-01-17T10:27:47.687Z,8.00
2019-01-17T10:30:32.355Z,8.10
2019-01-17T10:33:25.721Z,8.10
2019-01-17T10:36:09.504Z,8.10
2019-01-17T10:38:47.231Z,8.10
2019-01-17T10:42:33.982Z,8.00
2019-01-17T10:46:14.886Z,7.80
2019-01-17T10:48:52.498Z,7.90
2019-01-17T10:51:34.093Z,8.20
2019-01-17T10:54:17.208Z,8.20
2019-01-17T10:57:56.570Z,8.30
2019-01-17T11:00:38.013Z,8.30
2019-01-17T11:03:16.494Z,8.20
2019-01-17T11:05:58.259Z,8.20
2019-01-17T11:08:39.598Z,8.20
2019-01-17T11:11:22.731Z,8.20
2019-01-17T11:13:58.996Z,8.20
2019-01-17T11:17:44.161Z,8.30
2019-01-17T11:20:26.510Z,8.50
2019-01-17T11:23:18.555Z,8.60
2019-01-17T11:26:58.550Z,8.60
2019-01-17T11:29:43.902Z,8.40
2019-01-17T11:32:31.558Z,8.20
2019-01-17T11:35:30.366Z,8.10
2019-01-17T11:40:11.199Z,8.20
2019-01-17T11:43:09.642Z,8.30
2019-01-17T11:45:54.944Z,8.30
2019-01-17T11:48:41.482Z,8.30
2019-01-17T11:51:28.045Z,8.20
2019-01-17T11:54:09.676Z,8.30
2019-01-17T11:56:51.067Z,8.40
2019-01-17T11:59:42.885Z,8.50
2019-01-17T12:02:54.450Z,8.40
2019-01-17T12:05:23.556Z,8.40
2019-01-17T12:07:51.937Z,8.30
2019-01-17T12:10:20.208Z,8.30
2019-01-17T12:12:48.613Z,8.30
2019-01-17T12:15:16.960Z,8.20
2019-01-17T12:17:45.767Z,8.20
2019-01-17T12:20:14.134Z,8.30
2019-01-17T12:22:42.409Z,8.30
2019-01-17T12:25:10.770Z,8.20
2019-01-17T12:27:42.457Z,8.20
2019-01-17T12:30:11.496Z,8.30
2019-01-17T12:32:40.029Z,8.40
2019-01-17T12:35:09.797Z,8.30
2019-01-17T12:37:38.048Z,8.40
2019-01-17T12:40:07.821Z,8.30
2019-01-17T12:42:36.036Z,8.30
2019-01-17T12:45:04.719Z,8.20
2019-01-17T12:47:33.002Z,8.20
2019-01-17T12:50:01.265Z,8.20
2019-01-17T12:52:30.504Z,8.10
2019-01-17T12:54:58.890Z,8.10
2019-01-17T12:57:27.208Z,8.10
2019-01-17T12:59:55.518Z,8.10
2019-01-17T13:02:23.926Z,8.00
2019-01-17T13:04:53.237Z,8.10
2019-01-17T13:07:28.226Z,8.10
2019-01-17T13:09:57.253Z,8.10
2019-01-17T13:12:26.057Z,8.20
2019-01-17T13:14:54.306Z,8.10
2019-01-17T13:17:22.600Z,8.00
2019-01-17T13:19:50.890Z,8.00
2019-01-17T13:22:20.588Z,7.90
2019-01-17T13:24:48.875Z,7.90
2019-01-17T13:27:17.347Z,7.70
2019-01-17T13:29:45.626Z,7.60
2019-01-17T13:32:13.893Z,7.50
2019-01-17T13:34:42.114Z,7.50
2019-01-17T13:37:11.786Z,7.50
2019-01-17T13:39:40.614Z,7.60
2019-01-17T13:42:08.971Z,7.80
2019-01-17T13:44:37.195Z,7.90
2019-01-17T13:47:06.200Z,8.00
2019-01-17T13:49:34.458Z,8.20
2019-01-17T13:52:02.971Z,8.40
2019-01-17T13:54:31.353Z,8.60
2019-01-17T13:56:59.607Z,8.70
2019-01-17T13:59:27.929Z,8.70
2019-01-17T14:01:56.250Z,8.70
2019-01-17T14:04:24.833Z,8.80
2019-01-17T14:06:53.245Z,8.90
2019-01-17T14:09:21.558Z,8.80
2019-01-17T14:11:49.849Z,8.70
2019-01-17T14:14:18.175Z,8.80
2019-01-17T14:16:46.989Z,8.80
2019-01-17T14:19:15.205Z,8.80
2019-01-17T14:21:43.464Z,8.90
2019-01-17T14:24:11.746Z,9.00
2019-01-17T14:26:40.180Z,9.00
2019-01-17T14:29:08.411Z,9.10
2019-01-17T14:31:36.675Z,9.10
2019-01-17T14:34:04.969Z,9.00
2019-01-17T14:36:33.238Z,8.80
2019-01-17T14:39:01.526Z,8.80
2019-01-17T14:41:29.769Z,8.80
2019-01-17T14:43:58.042Z,8.80
2019-01-17T14:46:26.414Z,8.80
2019-01-17T14:48:54.705Z,8.90
2019-01-17T14:51:22.985Z,8.90
2019-01-17T14:53:51.230Z,8.80
2019-01-17T14:56:19.518Z,8.60
2019-01-17T14:58:48.729Z,8.60
2019-01-17T15:01:17.009Z,8.50
2019-01-17T15:03:45.257Z,8.50
2019-01-17T15:06:14.254Z,8.40
2019-01-17T15:08:43.140Z,8.30
2019-01-17T15:11:12.211Z,8.20
2019-01-17T15:13:40.966Z,8.10
2019-01-17T15:16:10.901Z,8.00
2019-01-17T15:18:39.976Z,7.90
2019-01-17T15:21:08.208Z,7.80
2019-01-17T15:23:36.476Z,7.80
2019-01-17T15:26:05.345Z,7.70
2019-01-17T15:28:33.607Z,7.80
2019-01-17T15:31:01.930Z,7.60
2019-01-17T15:33:30.202Z,7.50
2019-01-17T15:35:58.467Z,7.50
2019-01-17T15:38:26.730Z,7.40
2019-01-17T15:40:55.939Z,7.20
2019-01-17T15:43:24.961Z,6.30
2019-01-17T15:45:54.258Z,5.70
2019-01-17T15:48:22.492Z,5.50
2019-01-17T15:50:51.410Z,5.40
2019-01-17T15:53:19.699Z,5.40
2019-01-17T15:55:48.783Z,5.30
2019-01-17T15:58:17.114Z,5.30
2019-01-17T16:00:45.443Z,5.40
2019-01-17T16:03:13.797Z,5.30
2019-01-17T16:05:42.250Z,5.30
2019-01-17T16:08:10.462Z,5.30
2019-01-17T16:10:38.737Z,5.30
2019-01-17T16:13:07.012Z,5.40
2019-01-17T16:15:35.233Z,5.40
2019-01-17T16:18:03.502Z,5.50
2019-01-17T16:20:31.754Z,5.50
2019-01-17T16:23:00.056Z,5.50
2019-01-17T16:25:28.346Z,5.40
2019-01-17T16:27:57.213Z,5.40
2019-01-17T16:30:27.784Z,5.40
2019-01-17T16:32:56.086Z,5.40
2019-01-17T16:35:24.369Z,5.40
2019-01-17T16:37:52.667Z,5.40
2019-01-17T16:40:21.034Z,5.40
2019-01-17T16:42:49.916Z,5.40
2019-01-17T16:45:18.550Z,5.40
2019-01-17T16:47:47.454Z,5.40
2019-01-17T16:50:18.734Z,5.40
2019-01-17T16:52:47.034Z,5.40
2019-01-17T16:55:15.655Z,5.40
2019-01-17T16:57:48.836Z,5.40
2019-01-17T17:00:20.555Z,5.40
2019-01-17T17:02:48.813Z,5.40
2019-01-17T17:05:17.084Z,5.40
2019-01-17T17:07:45.315Z,5.40
2019-01-17T17:10:14.718Z,5.40
2019-01-17T17:12:43.049Z,5.40
2019-01-17T17:15:11.887Z,5.40
2019-01-17T17:17:40.149Z,5.50
2019-01-17T17:20:11.186Z,5.50
2019-01-17T17:22:40.382Z,5.50
2019-01-17T17:25:08.658Z,5.60
2019-01-17T17:27:36.941Z,5.60
2019-01-17T17:30:07.595Z,5.50
2019-01-17T17:32:36.184Z,5.50
2019-01-17T17:35:05.294Z,5.20
2019-01-17T17:37:33.526Z,4.60
2019-01-17T17:40:01.805Z,4.10
2019-01-17T17:42:30.194Z,3.90
2019-01-17T17:44:58.462Z,3.70
2019-01-17T17:47:26.867Z,3.70
2019-01-17T17:49:55.207Z,3.60
2019-01-17T17:52:23.538Z,3.50
2019-01-17T17:54:52.799Z,3.50
2019-01-17T17:57:21.642Z,3.50
2019-01-17T17:59:49.906Z,3.60
2019-01-17T18:02:24.522Z,3.60
2019-01-17T18:04:53.677Z,3.60
2019-01-17T18:07:21.963Z,3.70
2019-01-17T18:09:50.260Z,3.70
2019-01-17T18:12:19.083Z,3.70
2019-01-17T18:14:47.377Z,3.80
2019-01-17T18:17:15.660Z,3.80
2019-01-17T18:19:44.609Z,3.90
2019-01-17T18:22:12.865Z,4.00
2019-01-17T18:24:41.162Z,3.90
2019-01-17T18:27:09.527Z,3.90
2019-01-17T18:29:37.798Z,4.00
2019-01-17T18:32:06.138Z,4.00
2019-01-17T18:34:34.768Z,4.00
2019-01-17T18:37:03.644Z,4.10
2019-01-17T18:39:32.394Z,4.10
2019-01-17T18:42:00.646Z,4.10
2019-01-17T18:44:29.020Z,4.10
2019-01-17T18:46:57.362Z,4.10
2019-01-17T18:49:25.633Z,4.10
2019-01-17T18:51:53.853Z,4.10
2019-01-17T18:54:22.201Z,4.20
2019-01-17T18:56:50.938Z,4.20
2019-01-17T18:59:19.220Z,4.20
2019-01-17T19:01:47.569Z,4.30
2019-01-17T19:04:15.780Z,4.30
2019-01-17T19:06:44.095Z,4.30
2019-01-17T19:09:15.349Z,4.30
2019-01-17T19:11:43.613Z,4.30
2019-01-17T19:14:11.922Z,4.20
2019-01-17T19:16:40.194Z,4.10
2019-01-17T19:19:08.563Z,4.10
2019-01-17T19:21:37.861Z,4.10
2019-01-17T19:24:07.081Z,4.00
2019-01-17T19:26:35.373Z,3.90
2019-01-17T19:29:06.693Z,3.90
2019-01-17T19:31:34.926Z,3.90
2019-01-17T19:34:04.361Z,3.90
2019-01-17T19:36:34.155Z,3.70
2019-01-17T19:39:03.481Z,3.80
2019-01-17T19:41:32.477Z,3.70
2019-01-17T19:44:00.698Z,3.70
2019-01-17T19:46:30.022Z,3.70
2019-01-17T19:48:58.267Z,3.70
2019-01-17T19:51:26.711Z,3.70
2019-01-17T19:53:55.042Z,3.60
2019-01-17T19:56:23.302Z,3.60
2019-01-17T19:58:51.560Z,3.60
2019-01-17T20:01:20.550Z,3.70
2019-01-17T20:03:48.769Z,3.70
2019-01-17T20:06:17.044Z,3.70
2019-01-17T20:08:45.854Z,3.70
2019-01-17T20:11:14.880Z,3.70
2019-01-17T20:13:43.138Z,3.70
2019-01-17T20:16:11.458Z,3.80
2019-01-17T20:18:40.450Z,3.70
2019-01-17T20:21:08.707Z,3.70
2019-01-17T20:23:37.875Z,3.70
2019-01-17T20:26:06.178Z,3.60
2019-01-17T20:28:35.769Z,3.60
2019-01-17T20:31:03.906Z,3.50
2019-01-17T20:33:31.605Z,3.60
2019-01-17T20:35:59.902Z,3.50
2019-01-17T20:38:28.203Z,3.50
2019-01-17T20:40:58.337Z,3.60
2019-01-17T20:43:25.845Z,3.60
2019-01-17T20:45:54.098Z,3.50
2019-01-17T20:48:22.409Z,3.50
2019-01-17T20:50:51.342Z,3.50
2019-01-17T20:53:20.297Z,3.40
2019-01-17T20:55:50.216Z,3.40
2019-01-17T20:58:18.518Z,3.40
2019-01-17T21:00:55.869Z,3.40
2019-01-17T21:03:24.074Z,3.30
2019-01-17T21:05:52.290Z,3.30
2019-01-17T21:08:20.657Z,3.30
2019-01-17T21:10:48.999Z,3.30
2019-01-17T21:13:17.252Z,3.30
2019-01-17T21:15:46.530Z,3.30
2019-01-17T21:18:14.819Z,3.30
2019-01-17T21:20:43.128Z,3.20
2019-01-17T21:23:11.406Z,3.20
2019-01-17T21:25:39.662Z,3.30
2019-01-17T21:28:08.185Z,3.30
2019-01-17T21:30:36.463Z,3.30
2019-01-17T21:33:07.053Z,3.30
2019-01-17T21:35:40.801Z,3.30
2019-01-17T21:38:09.846Z,3.40
2019-01-17T21:40:52.150Z,3.40
2019-01-17T21:43:20.978Z,3.50
2019-01-17T21:45:49.264Z,3.50
2019-01-17T21:48:17.553Z,3.60
2019-01-17T21:50:49.149Z,3.70
2019-01-17T21:53:18.941Z,3.80
2019-01-17T21:55:47.190Z,3.90
2019-01-17T21:58:15.457Z,4.00
2019-01-17T22:00:43.809Z,4.00
2019-01-17T22:03:12.068Z,4.20
2019-01-17T22:05:40.314Z,4.10
2019-01-17T22:08:08.603Z,4.10
2019-01-17T22:10:37.497Z,4.00
2019-01-17T22:13:06.478Z,4.00
2019-01-17T22:15:34.746Z,3.90
2019-01-17T22:18:03.975Z,3.90
2019-01-17T22:20:32.261Z,4.00
2019-01-17T22:23:00.503Z,3.90
2019-01-17T22:25:28.806Z,3.90
2019-01-17T22:27:57.060Z,4.00
2019-01-17T22:30:27.638Z,4.00
2019-01-17T22:32:56.611Z,3.90
2019-01-17T22:35:24.870Z,3.90
2019-01-17T22:37:53.191Z,3.90
2019-01-17T22:40:21.522Z,4.00
2019-01-17T22:42:49.702Z,4.00
2019-01-17T22:45:20.386Z,4.00
2019-01-17T22:47:49.201Z,3.90
2019-01-17T22:50:17.798Z,3.80
2019-01-17T22:52:47.048Z,3.70
2019-01-17T22:55:15.947Z,3.70
2019-01-17T22:57:44.159Z,3.70
2019-01-17T23:00:19.142Z,3.60
2019-01-17T23:02:47.468Z,3.60
2019-01-17T23:05:17.759Z,3.70
2019-01-17T23:07:47.046Z,3.60
2019-01-17T23:10:15.401Z,3.60
2019-01-17T23:12:43.696Z,3.60
2019-01-17T23:15:11.936Z,3.70
2019-01-17T23:17:41.251Z,3.70
2019-01-17T23:20:09.586Z,3.70
2019-01-17T23:22:39.306Z,3.70
2019-01-17T23:25:07.606Z,3.70
2019-01-17T23:27:35.917Z,3.70
2019-01-17T23:30:05.021Z,3.70
2019-01-17T23:32:33.454Z,3.80
2019-01-17T23:35:01.721Z,3.70
2019-01-17T23:37:30.537Z,3.70
2019-01-17T23:39:59.806Z,3.80
2019-01-17T23:42:28.586Z,3.80
2019-01-17T23:44:57.119Z,3.80
2019-01-17T23:47:25.602Z,3.80
2019-01-17T23:49:54.430Z,3.80
2019-01-17T23:52:23.745Z,3.90
2019-01-17T23:54:52.042Z,3.90
2019-01-17T23:57:20.961Z,3.90
2019-01-17T23:59:49.198Z,4.00
